Time;durP1;ratioP1;P1;durP2;ratioP2;P2;SDS_P1;SDS_P2;PMS_P1;PMS_P2;Temp;Humidity;BMP_temperature;BMP_pressure;BME280_temperature;BME280_humidity;BME280_pressure;Samples;Min_cycle;Max_cycle;Signal;HPM_P1;HPM_P2
2022/11/29 00:02:11;;;;;;;20.55;15.57;;;;;;;7.56;100.00;101337.69;5294296;28;20143;-70
2022/11/29 00:04:43;;;;;;;21.15;15.38;;;;;;;7.54;100.00;101339.56;5290427;28;20473;-70
2022/11/29 00:07:14;;;;;;;23.08;16.15;;;;;;;7.54;100.00;101345.63;5285527;28;20600;-70
2022/11/29 00:09:45;;;;;;;26.35;16.13;;;;;;;7.54;100.00;101343.00;5283914;28;20158;-70
2022/11/29 00:12:17;;;;;;;22.77;15.55;;;;;;;7.60;100.00;101340.94;5284713;28;20464;-72
2022/11/29 00:14:48;;;;;;;20.52;16.02;;;;;;;7.54;100.00;101342.19;5286339;28;20059;-71
2022/11/29 00:17:19;;;;;;;21.92;15.77;;;;;;;7.51;100.00;101339.75;5289287;28;20024;-71
2022/11/29 00:19:50;;;;;;;23.33;15.65;;;;;;;7.47;100.00;101336.50;5285553;28;20718;-71
2022/11/29 00:22:24;;;;;;;22.23;15.80;;;;;;;7.45;100.00;101340.13;5292354;28;20106;-69
2022/11/29 00:24:55;;;;;;;25.48;15.05;;;;;;;7.46;100.00;101344.41;5286076;28;20020;-69
2022/11/29 00:27:26;;;;;;;29.42;15.77;;;;;;;7.46;100.00;101354.84;5284098;28;20035;-69
2022/11/29 00:29:57;;;;;;;33.20;17.63;;;;;;;7.45;100.00;101342.75;5270270;28;20129;-70
2022/11/29 00:32:29;;;;;;;41.60;16.85;;;;;;;7.41;100.00;101343.88;5285771;28;20064;-72
2022/11/29 00:35:00;;;;;;;38.47;17.20;;;;;;;7.44;100.00;101349.72;5290710;28;20480;-70
2022/11/29 00:37:31;;;;;;;30.92;17.33;;;;;;;7.44;100.00;101354.13;5279903;28;20031;-70
2022/11/29 00:40:04;;;;;;;30.70;17.27;;;;;;;7.38;100.00;101350.13;5286467;28;20032;-69
2022/11/29 00:42:35;;;;;;;26.67;16.58;;;;;;;7.45;100.00;101350.56;5288107;28;20044;-71
2022/11/29 00:45:07;;;;;;;28.30;16.92;;;;;;;7.42;100.00;101348.16;5287887;28;20038;-70
2022/11/29 00:47:38;;;;;;;31.48;17.83;;;;;;;7.39;100.00;101351.81;5282881;28;20170;-71
2022/11/29 00:50:10;;;;;;;23.80;17.13;;;;;;;7.40;100.00;101350.88;5283963;28;20119;-70
2022/11/29 00:52:41;;;;;;;23.42;16.20;;;;;;;7.39;100.00;101350.97;5284347;28;20036;-70
2022/11/29 00:55:12;;;;;;;34.78;16.80;;;;;;;7.38;100.00;101347.50;5285919;28;20456;-72
2022/11/29 00:57:44;;;;;;;31.38;16.40;;;;;;;7.38;100.00;101344.91;5286833;28;20438;-71
2022/11/29 01:00:16;;;;;;;35.85;16.33;;;;;;;7.32;100.00;101338.31;5283874;28;20024;-71
2022/11/29 01:02:47;;;;;;;35.45;17.40;;;;;;;7.39;100.00;101344.00;5284815;28;20491;-70
2022/11/29 01:05:18;;;;;;;21.42;15.70;;;;;;;7.37;100.00;101345.00;5280885;28;20029;-72
2022/11/29 01:07:49;;;;;;;35.70;16.48;;;;;;;7.36;100.00;101346.78;5271196;28;20648;-71
2022/11/29 01:10:21;;;;;;;27.27;17.02;;;;;;;7.35;100.00;101346.88;5288279;28;20162;-71
2022/11/29 01:12:52;;;;;;;23.00;15.93;;;;;;;7.34;100.00;101348.63;5290398;28;20016;-71
2022/11/29 01:15:24;;;;;;;29.30;16.88;;;;;;;7.31;100.00;101347.09;5288659;28;20469;-72
2022/11/29 01:17:55;;;;;;;40.08;16.25;;;;;;;7.29;100.00;101359.34;5285799;28;20141;-71
2022/11/29 01:20:27;;;;;;;45.70;17.23;;;;;;;7.27;100.00;101360.38;5288388;28;20034;-71
2022/11/29 01:22:58;;;;;;;31.98;15.77;;;;;;;7.26;100.00;101358.72;5285754;28;20029;-71
2022/11/29 01:25:30;;;;;;;44.83;17.45;;;;;;;7.22;100.00;101354.63;5288803;28;20492;-70
2022/11/29 01:28:02;;;;;;;44.60;16.70;;;;;;;7.25;100.00;101364.88;5287454;28;20012;-71
2022/11/29 01:30:33;;;;;;;37.58;16.15;;;;;;;7.23;100.00;101367.53;5284558;28;20097;-71
2022/11/29 01:33:04;;;;;;;47.67;17.30;;;;;;;7.21;100.00;101359.00;5269284;28;20024;-71
2022/11/29 01:35:36;;;;;;;43.85;16.30;;;;;;;7.25;100.00;101370.06;5265469;28;20020;-71
2022/11/29 01:38:07;;;;;;;30.20;16.45;;;;;;;7.25;100.00;101370.06;5284200;28;20025;-71
2022/11/29 01:40:38;;;;;;;20.17;15.35;;;;;;;7.27;100.00;101378.63;5286456;28;20044;-71
2022/11/29 01:43:15;;;;;;;22.35;15.88;;;;;;;7.34;100.00;101373.88;5283647;28;20040;-72
2022/11/29 01:45:48;;;;;;;33.83;16.73;;;;;;;7.25;100.00;101383.09;5282244;28;20460;-71
2022/11/29 01:48:27;;;;;;;29.42;16.00;;;;;;;7.33;100.00;101383.47;5264607;28;20111;-71
2022/11/29 01:51:00;;;;;;;24.25;16.55;;;;;;;7.19;100.00;101386.91;5288238;28;20031;-70
2022/11/29 01:53:31;;;;;;;30.95;16.98;;;;;;;7.20;100.00;101387.78;5286693;28;20028;-71
2022/11/29 01:56:04;;;;;;;26.55;15.75;;;;;;;7.20;100.00;101393.81;5285577;28;20367;-71
2022/11/29 01:58:35;;;;;;;36.05;16.58;;;;;;;7.22;100.00;101393.72;5284817;28;20366;-70
2022/11/29 02:01:07;;;;;;;28.38;16.70;;;;;;;7.19;100.00;101392.13;5276999;28;20034;-70
2022/11/29 02:03:38;;;;;;;37.88;17.95;;;;;;;7.24;100.00;101404.91;5285801;28;20490;-70
2022/11/29 02:06:10;;;;;;;85.88;18.73;;;;;;;7.21;100.00;101399.88;5284940;28;20385;-71
2022/11/29 02:08:42;;;;;;;58.35;17.42;;;;;;;7.25;100.00;101414.38;5290071;28;20023;-70
2022/11/29 02:11:29;;;;;;;64.00;18.30;;;;;;;7.50;100.00;101411.06;5264466;28;20039;-71
2022/11/29 02:14:18;;;;;;;68.63;16.98;;;;;;;7.44;100.00;101412.31;5283408;28;20024;-71
2022/11/29 02:17:02;;;;;;;81.47;18.33;;;;;;;7.44;100.00;101414.06;5285975;28;20020;-70
2022/11/29 02:20:10;;;;;;;55.45;15.90;;;;;;;7.55;100.00;101417.69;5281215;28;20051;-70
2022/11/29 02:23:06;;;;;;;65.38;16.35;;;;;;;7.42;100.00;101414.16;5287587;28;20032;-71
2022/11/29 02:26:03;;;;;;;76.05;15.60;;;;;;;7.55;100.00;101415.06;5285084;28;20028;-71
2022/11/29 02:28:59;;;;;;;53.20;15.48;;;;;;;7.52;100.00;101419.63;5280129;28;20119;-71
2022/11/29 02:32:06;;;;;;;65.03;16.73;;;;;;;7.63;100.00;101418.97;5281844;28;21131;-71
2022/11/29 02:34:52;;;;;;;42.10;15.50;;;;;;;7.39;100.00;101413.53;5282803;28;20628;-72
2022/11/29 02:37:30;;;;;;;50.10;15.55;;;;;;;7.48;100.00;101400.75;5286999;28;20445;-71
2022/11/29 02:40:10;;;;;;;37.97;15.30;;;;;;;7.51;100.00;101408.38;5283252;28;20032;-71
2022/11/29 02:43:08;;;;;;;24.10;14.68;;;;;;;7.64;100.00;101407.59;5264832;28;20040;-70
2022/11/29 02:46:07;;;;;;;39.22;14.85;;;;;;;7.50;100.00;101406.72;5282955;28;20400;-72
2022/11/29 02:49:15;;;;;;;39.08;15.10;;;;;;;7.66;100.00;101411.78;5284379;28;20109;-71
2022/11/29 02:52:09;;;;;;;77.78;16.33;;;;;;;7.61;100.00;101413.84;5286072;28;20390;-71
2022/11/29 02:55:05;;;;;;;64.63;15.70;;;;;;;7.60;100.00;101420.00;5278165;28;20063;-72
2022/11/29 02:58:05;;;;;;;34.40;14.95;;;;;;;7.56;100.00;101415.91;5278131;28;20036;-71
2022/11/29 03:00:45;;;;;;;36.55;14.80;;;;;;;7.41;100.00;101420.31;5284093;28;20078;-71
2022/11/29 03:03:26;;;;;;;47.47;15.65;;;;;;;7.48;100.00;101425.97;5282144;28;20052;-71
2022/11/29 03:06:16;;;;;;;25.83;14.77;;;;;;;7.52;100.00;101427.47;5287534;28;20016;-71
2022/11/29 03:09:28;;;;;;;28.88;14.65;;;;;;;7.51;100.00;101426.63;5285658;28;20489;-71
2022/11/29 03:12:17;;;;;;;21.13;13.95;;;;;;;7.38;100.00;101417.88;5284588;28;20473;-71
2022/11/29 03:15:00;;;;;;;19.25;13.93;;;;;;;7.30;100.00;101440.97;5262601;28;20027;-73
2022/11/29 03:17:59;;;;;;;17.60;13.57;;;;;;;7.39;100.00;101435.22;5287217;28;20085;-71
2022/11/29 03:21:07;;;;;;;19.25;14.05;;;;;;;7.44;100.00;101443.59;5267810;28;20040;-71
2022/11/29 03:23:46;;;;;;;22.08;13.10;;;;;;;7.26;100.00;101445.56;5284312;28;20036;-73
2022/11/29 03:26:28;;;;;;;23.33;14.05;;;;;;;7.24;100.00;101450.03;5285768;28;20028;-71
2022/11/29 03:29:31;;;;;;;27.55;13.20;;;;;;;7.29;100.00;101449.75;5282263;28;20033;-71
2022/11/29 03:32:11;;;;;;;21.80;13.82;;;;;;;7.17;100.00;101453.09;5290354;28;20028;-71
2022/11/29 03:35:19;;;;;;;30.27;14.07;;;;;;;7.28;100.00;101459.34;5286429;28;20074;-70
2022/11/29 03:38:05;;;;;;;32.28;13.27;;;;;;;7.14;100.00;101461.09;5284619;28;20809;-71
2022/11/29 03:41:04;;;;;;;35.40;13.75;;;;;;;7.29;100.00;101460.16;5286703;28;20036;-72
2022/11/29 03:43:44;;;;;;;31.98;13.88;;;;;;;7.11;100.00;101469.09;5279874;28;20051;-71
2022/11/29 03:46:33;;;;;;;51.80;15.15;;;;;;;7.17;100.00;101460.94;5278841;28;20062;-70
2022/11/29 03:49:12;;;;;;;51.58;14.07;;;;;;;7.03;100.00;101469.56;5284454;28;20757;-71
2022/11/29 03:52:15;;;;;;;52.17;14.15;;;;;;;7.24;100.00;101467.44;5281270;28;21121;-70
2022/11/29 03:55:18;;;;;;;52.75;13.27;;;;;;;7.15;100.00;101470.59;5284113;28;20111;-70
2022/11/29 03:58:20;;;;;;;53.55;14.10;;;;;;;7.19;100.00;101475.50;5285473;28;20436;-71
2022/11/29 04:01:12;;;;;;;45.33;13.55;;;;;;;6.94;100.00;101470.97;5285441;28;20028;-72
2022/11/29 04:04:13;;;;;;;58.17;14.20;;;;;;;7.11;100.00;101477.75;5282145;28;20629;-71
2022/11/29 04:07:00;;;;;;;72.05;13.77;;;;;;;7.08;100.00;101483.13;5284469;28;20025;-71
2022/11/29 04:09:53;;;;;;;45.47;14.45;;;;;;;7.12;100.00;101489.00;5288818;28;20027;-72
2022/11/29 04:12:47;;;;;;;51.05;13.95;;;;;;;7.17;100.00;101492.19;5288669;28;20064;-73
2022/11/29 04:15:35;;;;;;;73.40;14.57;;;;;;;7.04;100.00;101479.88;5261297;28;20140;-71
2022/11/29 04:18:28;;;;;;;74.28;14.82;;;;;;;7.03;100.00;101491.25;5266006;28;20520;-71
2022/11/29 04:21:08;;;;;;;83.05;14.20;;;;;;;7.01;100.00;101494.88;5270014;28;20366;-70
2022/11/29 04:24:05;;;;;;;81.38;14.73;;;;;;;7.12;100.00;101487.22;5286565;28;20032;-71
2022/11/29 04:26:55;;;;;;;63.40;12.90;;;;;;;7.06;100.00;101498.03;5290692;28;20065;-71
2022/11/29 04:29:49;;;;;;;44.67;12.55;;;;;;;7.08;100.00;101496.16;5287119;28;20378;-71
2022/11/29 04:32:32;;;;;;;57.88;13.57;;;;;;;6.90;100.00;101500.72;5262513;28;20048;-71
2022/11/29 04:35:22;;;;;;;26.13;11.27;;;;;;;6.75;100.00;101494.66;5293297;28;20024;-71
2022/11/29 04:38:15;;;;;;;55.22;13.05;;;;;;;6.90;100.00;101495.50;5292574;28;20661;-71
2022/11/29 04:40:54;;;;;;;57.60;12.70;;;;;;;6.72;100.00;101501.78;5292881;28;20234;-71
2022/11/29 04:43:50;;;;;;;59.40;13.32;;;;;;;6.90;100.00;101489.47;5288168;28;20040;-72
2022/11/29 04:46:43;;;;;;;42.45;12.05;;;;;;;6.70;100.00;101499.25;5286392;28;20431;-71
2022/11/29 04:49:39;;;;;;;23.90;9.70;;;;;;;6.79;100.00;101509.16;5288727;28;20032;-71
2022/11/29 04:52:19;;;;;;;37.42;11.77;;;;;;;6.77;100.00;101510.16;5288959;28;20047;-72
2022/11/29 04:55:03;;;;;;;40.22;11.52;;;;;;;6.76;100.00;101514.53;5285961;28;20031;-72
2022/11/29 04:57:50;;;;;;;34.60;11.35;;;;;;;6.70;100.00;101512.28;5291503;28;20515;-72
2022/11/29 05:00:23;;;;;;;47.25;11.80;;;;;;;6.61;100.00;101510.22;5287443;28;20048;-71
2022/11/29 05:03:10;;;;;;;28.70;11.20;;;;;;;6.76;100.00;101518.91;5281340;28;20095;-69
2022/11/29 05:06:03;;;;;;;20.98;10.23;;;;;;;6.78;100.00;101517.91;5285592;28;20024;-72
2022/11/29 05:08:54;;;;;;;25.70;11.30;;;;;;;6.76;100.00;101529.34;5286425;28;20363;-72
2022/11/29 05:11:48;;;;;;;31.55;10.95;;;;;;;6.65;100.00;101526.50;5275016;28;20413;-71
2022/11/29 05:15:03;;;;;;;34.70;11.05;;;;;;;6.81;100.00;101532.50;5287182;28;20043;-72
2022/11/29 05:18:02;;;;;;;41.80;11.02;;;;;;;6.78;100.00;101537.88;5287303;28;20107;-72
2022/11/29 05:20:50;;;;;;;22.65;10.60;;;;;;;6.70;100.00;101540.09;5292600;28;20516;-72
2022/11/29 05:23:30;;;;;;;10.60;9.60;;;;;;;6.64;100.00;101546.50;5289499;28;20157;-72
2022/11/29 05:26:25;;;;;;;25.95;10.93;;;;;;;6.81;100.00;101548.13;5283108;28;20459;-72
2022/11/29 05:29:03;;;;;;;24.92;10.40;;;;;;;6.67;100.00;101559.34;5286808;28;20012;-71
2022/11/29 05:32:12;;;;;;;22.92;10.73;;;;;;;6.83;100.00;101556.69;5281937;28;20489;-72
2022/11/29 05:35:01;;;;;;;23.58;10.18;;;;;;;6.77;100.00;101560.47;5289163;28;20042;-70
2022/11/29 05:37:53;;;;;;;34.00;12.00;;;;;;;6.82;100.00;101562.84;5276441;28;20044;-69
2022/11/29 05:40:52;;;;;;;24.00;11.10;;;;;;;6.83;100.00;101561.91;5288687;28;20032;-71
2022/11/29 05:43:45;;;;;;;29.45;10.55;;;;;;;6.71;100.00;101565.22;5290895;28;20036;-70
2022/11/29 05:46:36;;;;;;;30.38;10.70;;;;;;;6.83;100.00;101569.72;5285156;28;20105;-72
2022/11/29 05:49:21;;;;;;;24.02;11.07;;;;;;;6.78;100.00;101570.00;5289332;28;20031;-69
2022/11/29 05:52:04;;;;;;;36.28;11.63;;;;;;;6.68;100.00;101583.63;5286504;28;20386;-72
2022/11/29 05:54:43;;;;;;;33.03;11.32;;;;;;;6.68;100.00;101588.81;5286550;28;20484;-72
2022/11/29 05:57:49;;;;;;;28.90;11.63;;;;;;;6.71;100.00;101588.66;5285448;28;20107;-72
2022/11/29 06:00:21;;;;;;;33.63;12.18;;;;;;;6.58;100.00;101578.91;5265654;28;20127;-71
2022/11/29 06:03:02;;;;;;;35.35;11.50;;;;;;;6.69;100.00;101586.13;5288546;28;20111;-72
2022/11/29 06:05:56;;;;;;;36.72;12.35;;;;;;;6.84;100.00;101589.63;5276079;28;20024;-72
2022/11/29 06:08:33;;;;;;;;;;;;;;;7.19;100.00;101594.56;5285733;28;20496;-71
2022/11/29 06:11:24;;;;;;;43.97;11.90;;;;;;;6.88;100.00;101600.72;5279533;28;19928;-72
2022/11/29 06:14:01;;;;;;;29.25;12.02;;;;;;;6.77;100.00;101615.16;5287143;28;20051;-72
2022/11/29 06:16:56;;;;;;;29.17;12.15;;;;;;;6.73;100.00;101618.88;5265309;28;20072;-72
2022/11/29 06:19:46;;;;;;;33.55;12.40;;;;;;;6.66;100.00;101621.91;5285189;28;20491;-70
2022/11/29 06:22:54;;;;;;;29.23;12.52;;;;;;;6.91;100.00;101624.81;5284121;28;20093;-72
2022/11/29 06:25:39;;;;;;;23.10;12.48;;;;;;;6.71;100.00;101625.13;5283835;28;21073;-71
2022/11/29 06:28:37;;;;;;;43.90;13.80;;;;;;;6.78;100.00;101629.91;5283654;28;20473;-71
2022/11/29 06:31:20;;;;;;;56.30;13.30;;;;;;;6.78;100.00;101621.22;5286416;28;20485;-72
2022/11/29 06:34:06;;;;;;;43.28;14.77;;;;;;;6.85;100.00;101632.13;5275779;28;20115;-71
2022/11/29 06:37:13;;;;;;;27.60;13.15;;;;;;;6.77;100.00;101628.19;5283208;28;20024;-71
2022/11/29 06:39:44;;;;;;;50.35;13.95;;;;;;;6.65;100.00;101639.31;5286891;28;20473;-71
2022/11/29 06:42:16;;;;;;;49.08;13.90;;;;;;;6.71;100.00;101656.38;5284805;28;20059;-70
2022/11/29 06:44:47;;;;;;;66.72;15.30;;;;;;;6.72;100.00;101652.81;5286601;28;20034;-72
2022/11/29 06:47:28;;;;;;;57.25;16.05;;;;;;;6.85;100.00;101652.97;5272434;28;20485;-72
2022/11/29 06:50:16;;;;;;;44.67;14.18;;;;;;;6.82;100.00;101659.22;5282718;28;20020;-69
2022/11/29 06:52:48;;;;;;;94.93;16.92;;;;;;;6.74;100.00;101662.25;5265503;28;20384;-71
2022/11/29 06:55:26;;;;;;;60.60;15.60;;;;;;;6.78;100.00;101666.34;5287402;28;20024;-71
2022/11/29 06:58:12;;;;;;;27.45;13.90;;;;;;;6.96;100.00;101666.22;5290046;28;21068;-72
2022/11/29 07:01:07;;;;;;;76.05;15.88;;;;;;;6.94;100.00;101662.88;5279830;28;20047;-72
2022/11/29 07:03:52;;;;;;;52.88;15.75;;;;;;;6.94;100.00;101671.53;5279799;28;20025;-71
2022/11/29 07:06:29;;;;;;;69.82;15.77;;;;;;;6.86;100.00;101668.53;5285346;28;20028;-72
2022/11/29 07:09:19;;;;;;;40.38;15.00;;;;;;;6.92;100.00;101669.94;5284289;28;20724;-72
2022/11/29 07:11:50;;;;;;;82.40;16.80;;;;;;;6.85;100.00;101673.81;5289191;28;20028;-72
2022/11/29 07:14:22;;;;;;;29.88;14.63;;;;;;;6.86;100.00;101676.34;5284271;28;20036;-72
2022/11/29 07:17:04;;;;;;;27.42;14.60;;;;;;;7.01;100.00;101679.84;5287023;28;20112;-72
2022/11/29 07:19:44;;;;;;;20.95;15.50;;;;;;;7.01;100.00;101685.06;5282514;28;20039;-72
2022/11/29 07:22:28;;;;;;;27.67;16.60;;;;;;;7.06;100.00;101689.06;5282145;28;20381;-72
2022/11/29 07:25:09;;;;;;;20.67;14.98;;;;;;;7.01;100.00;101690.28;5283635;28;20035;-72
2022/11/29 07:28:03;;;;;;;16.63;13.02;;;;;;;7.03;100.00;101699.66;5278346;28;20037;-72
2022/11/29 07:30:53;;;;;;;18.55;13.45;;;;;;;7.10;100.00;101699.34;5281219;28;20043;-72
2022/11/29 07:33:51;;;;;;;19.77;13.88;;;;;;;7.04;100.00;101708.31;5290676;28;20024;-72
2022/11/29 07:36:43;;;;;;;17.27;14.98;;;;;;;7.19;100.00;101709.22;5287813;28;20024;-72
2022/11/29 07:39:54;;;;;;;18.85;14.23;;;;;;;7.19;100.00;101710.06;5286696;28;20047;-72
2022/11/29 07:42:56;;;;;;;16.42;13.93;;;;;;;7.22;100.00;101714.25;5289581;28;20048;-71
2022/11/29 07:45:30;;;;;;;21.23;14.48;;;;;;;7.01;100.00;101722.38;5288799;28;20417;-71
2022/11/29 07:48:03;;;;;;;23.55;15.05;;;;;;;6.97;100.00;101717.41;5286812;28;20442;-72
2022/11/29 07:50:34;;;;;;;19.30;14.57;;;;;;;6.99;100.00;101719.00;5289877;28;20488;-72
2022/11/29 07:53:08;;;;;;;22.95;14.43;;;;;;;7.00;100.00;101717.22;5267310;28;20068;-72
2022/11/29 07:55:39;;;;;;;27.35;15.43;;;;;;;7.06;100.00;101720.34;5261519;28;20031;-71
2022/11/29 07:58:11;;;;;;;27.70;16.63;;;;;;;7.06;100.00;101724.72;5284627;28;20012;-71
2022/11/29 08:00:44;;;;;;;20.60;15.85;;;;;;;7.06;100.00;101722.94;5291900;28;20111;-72
2022/11/29 08:03:15;;;;;;;32.10;16.98;;;;;;;7.05;100.00;101721.28;5288072;28;20097;-72
2022/11/29 08:05:46;;;;;;;24.00;15.57;;;;;;;7.10;100.00;101717.56;5284992;28;20020;-71
2022/11/29 08:08:18;;;;;;;22.02;15.65;;;;;;;7.13;100.00;101730.44;5289266;28;20032;-71
2022/11/29 08:10:49;;;;;;;26.17;15.90;;;;;;;7.16;100.00;101730.25;5292816;28;20122;-72
2022/11/29 08:13:20;;;;;;;28.40;16.25;;;;;;;7.16;100.00;101731.09;5285714;28;20032;-72
2022/11/29 08:15:52;;;;;;;32.65;16.70;;;;;;;7.17;100.00;101735.38;5285594;28;20027;-72
2022/11/29 08:18:23;;;;;;;33.75;16.20;;;;;;;7.18;100.00;101738.81;5291317;28;20029;-71
2022/11/29 08:20:54;;;;;;;26.63;16.33;;;;;;;7.17;100.00;101732.78;5281643;28;20024;-71
2022/11/29 08:23:25;;;;;;;26.05;16.45;;;;;;;7.20;100.00;101737.81;5282959;28;20029;-72
2022/11/29 08:26:01;;;;;;;32.35;17.02;;;;;;;7.27;100.00;101733.94;5288628;28;20016;-71
2022/11/29 08:28:32;;;;;;;42.28;17.33;;;;;;;7.16;100.00;101741.53;5291101;28;20093;-69
2022/11/29 08:31:06;;;;;;;47.45;17.02;;;;;;;7.19;100.00;101737.88;5290071;28;20497;-72
2022/11/29 08:33:40;;;;;;;50.90;18.45;;;;;;;7.23;100.00;101742.84;5287320;28;20032;-71
2022/11/29 08:36:17;;;;;;;40.85;17.65;;;;;;;7.29;100.00;101747.72;5292471;28;20077;-71
2022/11/29 08:38:49;;;;;;;48.60;18.95;;;;;;;7.26;100.00;101753.09;5290460;28;20069;-71
2022/11/29 08:41:20;;;;;;;40.88;17.48;;;;;;;7.30;100.00;101748.53;5286838;28;20017;-72
2022/11/29 08:43:51;;;;;;;34.40;16.48;;;;;;;7.32;100.00;101750.16;5292735;28;20035;-72
2022/11/29 08:47:34;;;;;;;31.88;18.15;;;;;;;7.31;100.00;101755.44;5288627;28;20035;-72
2022/11/29 08:49:14;;;;;;;38.88;17.45;;;;;;;7.32;100.00;101757.13;5275389;28;20413;-72
2022/11/29 08:51:45;;;;;;;36.90;18.10;;;;;;;7.35;100.00;101753.50;5285404;28;20059;-72
2022/11/29 08:54:16;;;;;;;36.95;17.98;;;;;;;7.43;100.00;101761.75;5288438;28;20024;-72
2022/11/29 08:56:48;;;;;;;48.35;18.33;;;;;;;7.42;100.00;101763.50;5291663;28;20022;-72
2022/11/29 08:59:19;;;;;;;53.70;18.73;;;;;;;7.42;100.00;101763.50;5286589;28;20012;-69
2022/11/29 09:01:50;;;;;;;40.55;18.08;;;;;;;7.52;100.00;101762.03;5285849;28;20023;-72
2022/11/29 09:04:22;;;;;;;52.95;19.90;;;;;;;7.51;100.00;101762.97;5284423;28;20024;-72
2022/11/29 09:06:53;;;;;;;53.80;18.08;;;;;;;7.52;100.00;101764.66;5288059;28;20102;-71
2022/11/29 09:09:24;;;;;;;48.80;18.92;;;;;;;7.56;100.00;101768.75;5289386;28;20112;-71
2022/11/29 09:11:55;;;;;;;78.32;20.73;;;;;;;7.55;100.00;101771.47;5291237;28;20029;-71
2022/11/29 09:14:27;;;;;;;68.20;20.13;;;;;;;7.55;100.00;101780.13;5283206;28;20414;-72
2022/11/29 09:16:58;;;;;;;51.53;19.83;;;;;;;7.59;100.00;101783.41;5279761;28;20500;-72
2022/11/29 09:19:29;;;;;;;64.43;20.15;;;;;;;7.61;100.00;101781.53;5288952;28;20024;-72
2022/11/29 09:22:01;;;;;;;48.67;19.23;;;;;;;7.67;100.00;101777.75;5287930;28;20016;-72
2022/11/29 09:24:33;;;;;;;94.25;20.75;;;;;;;7.60;100.00;101776.41;5285474;28;20063;-72
2022/11/29 09:27:05;;;;;;;64.78;19.48;;;;;;;7.63;100.00;101771.03;5288349;28;20485;-72
2022/11/29 09:29:36;;;;;;;90.43;21.52;;;;;;;7.75;100.00;101793.78;5284753;28;20024;-72
2022/11/29 09:32:08;;;;;;;54.53;19.75;;;;;;;7.80;100.00;101796.97;5287188;28;20082;-70
2022/11/29 09:34:40;;;;;;;68.43;20.27;;;;;;;7.83;100.00;101798.56;5287684;28;20028;-72
2022/11/29 09:37:12;;;;;;;81.03;19.42;;;;;;;7.83;100.00;101796.78;5286772;28;20031;-71
2022/11/29 09:39:43;;;;;;;60.40;19.95;;;;;;;7.81;100.00;101803.88;5268754;28;20025;-72
2022/11/29 09:42:26;;;;;;;73.93;20.42;;;;;;;7.99;100.00;101812.38;5289212;28;20489;-71
2022/11/29 09:45:13;;;;;;;48.30;20.63;;;;;;;8.12;100.00;101812.53;5283772;28;20027;-72
2022/11/29 09:47:47;;;;;;;83.22;21.70;;;;;;;7.94;100.00;101817.03;5286990;28;20338;-72
2022/11/29 09:50:35;;;;;;;78.68;21.40;;;;;;;8.02;100.00;101813.03;5265037;28;20038;-72
2022/11/29 09:53:21;;;;;;;70.75;20.40;;;;;;;8.19;100.00;101812.06;5288088;28;20032;-72
2022/11/29 09:56:20;;;;;;;69.35;21.55;;;;;;;8.27;100.00;101820.28;5283664;28;20161;-71
2022/11/29 09:58:59;;;;;;;60.00;20.13;;;;;;;8.20;100.00;101818.97;5283685;28;20029;-72
2022/11/29 10:01:36;;;;;;;57.10;18.92;;;;;;;8.11;100.00;101819.53;5284993;28;20034;-72
2022/11/29 10:04:14;;;;;;;40.88;19.08;;;;;;;8.20;100.00;101825.97;5284035;28;20032;-72
2022/11/29 10:07:15;;;;;;;84.78;20.65;;;;;;;8.37;100.00;101823.22;5287713;28;20521;-72
2022/11/29 10:09:55;;;;;;;46.28;17.60;;;;;;;8.29;100.00;101833.22;5275670;28;20028;-72
2022/11/29 10:12:43;;;;;;;54.92;20.13;;;;;;;8.42;100.00;101825.56;5284288;28;20035;-70
2022/11/29 10:15:21;;;;;;;56.72;18.30;;;;;;;8.33;100.00;101823.44;5285671;28;20446;-72
2022/11/29 10:18:01;;;;;;;43.00;17.05;;;;;;;8.27;100.00;101816.84;5283498;28;20061;-72
2022/11/29 10:20:38;;;;;;;46.45;18.45;;;;;;;8.37;100.00;101824.94;5282365;28;20039;-71
2022/11/29 10:23:24;;;;;;;44.30;17.98;;;;;;;8.38;100.00;101822.28;5282087;28;20056;-71
2022/11/29 10:25:56;;;;;;;68.50;17.33;;;;;;;8.30;100.00;101821.88;5288694;28;20020;-70
2022/11/29 10:28:31;;;;;;;58.63;16.50;;;;;;;8.27;100.00;101809.00;5286810;28;20020;-70
2022/11/29 10:31:15;;;;;;;60.35;16.85;;;;;;;8.49;100.00;101819.88;5285016;28;20048;-72
2022/11/29 10:33:48;;;;;;;;;;;;;;;8.87;100.00;101814.09;5286225;28;20554;-72
2022/11/29 10:36:22;;;;;;;;;;;;;;;8.89;100.00;101814.81;5285314;28;19991;-69
2022/11/29 10:38:58;;;;;;;;;;;;;;;8.91;100.00;101822.56;5284093;28;19920;-69
2022/11/29 10:41:29;;;;;;;;;;;;;;;8.92;100.00;101811.16;5288707;28;19923;-71
2022/11/29 10:44:01;;;;;;;;;;;;;;;8.97;100.00;101811.72;5285848;28;19924;-72
2022/11/29 10:46:34;;;;;;;;;;;;;;;9.02;100.00;101822.75;5282172;28;20433;-71
2022/11/29 10:49:10;;;;;;;;;;;;;;;9.01;100.00;101819.25;5287402;28;19923;-72
2022/11/29 10:51:42;;;;;;;;;;;;;;;9.01;100.00;101821.03;5287566;28;19916;-71
2022/11/29 10:54:25;;;;;;;;;;;;;;;8.99;100.00;101828.16;5286143;28;19935;-72
2022/11/29 10:56:58;;;;;;;;;;;;;;;8.96;100.00;101823.94;5285023;28;20361;-71
2022/11/29 10:59:31;;;;;;;;;;;;;;;8.96;100.00;101823.09;5288659;28;19998;-71
2022/11/29 11:02:03;;;;;;;;;;;;;;;8.95;100.00;101827.50;5281513;28;19908;-74
2022/11/29 11:04:40;;;;;;;;;;;;;;;8.93;100.00;101823.28;5280208;28;19924;-71
2022/11/29 11:07:21;;;;;;;;;;;;;;;8.92;100.00;101832.91;5285297;28;19961;-71
2022/11/29 11:09:54;;;;;;;;;;;;;;;8.89;100.00;101825.25;5281069;28;19981;-71
2022/11/29 11:12:29;;;;;;;;;;;;;;;8.88;100.00;101833.22;5286257;28;20392;-71
2022/11/29 11:15:19;;;;;;;;;;;;;;;8.90;100.00;101823.47;5267796;28;19915;-71
2022/11/29 11:17:55;;;;;;;;;;;;;;;8.87;100.00;101819.31;5289694;28;20002;-74
2022/11/29 11:20:28;;;;;;;;;;;;;;;8.90;100.00;101823.47;5288685;28;19927;-73
2022/11/29 11:23:01;;;;;;;;;;;;;;;8.93;100.00;101818.06;5291100;28;19955;-71
2022/11/29 11:25:41;;;;;;;;;;;;;;;8.97;100.00;101830.00;5286288;28;19920;-71
2022/11/29 11:28:20;;;;;;;;;;;;;;;9.02;100.00;101833.19;5291914;28;19941;-72
2022/11/29 11:30:53;;;;;;;;;;;;;;;9.09;100.00;101834.50;5283185;28;19916;-71
2022/11/29 11:33:28;;;;;;;;;;;;;;;9.12;100.00;101842.13;5286111;28;20301;-71
2022/11/29 11:36:05;;;;;;;;;;;;;;;9.11;100.00;101832.59;5290288;28;20444;-71
2022/11/29 11:38:50;;;;;;;;;;;;;;;9.10;100.00;101837.94;5295952;28;19943;-73
2022/11/29 11:41:21;;;;;;;;;;;;;;;9.10;100.00;101841.41;5290535;28;20285;-71
2022/11/29 11:43:57;;;;;;;;;;;;;;;9.08;100.00;101845.03;5288147;28;19916;-72
2022/11/29 11:46:44;;;;;;;;;;;;;;;9.07;100.00;101840.75;5289113;28;19955;-70
2022/11/29 11:49:29;;;;;;;;;;;;;;;9.06;100.00;101850.38;5288709;28;19916;-71
2022/11/29 11:52:02;;;;;;;;;;;;;;;9.06;100.00;101847.75;5288282;28;19950;-71
2022/11/29 11:54:34;;;;;;;;;;;;;;;9.12;100.00;101846.50;5290246;28;19976;-71
2022/11/29 11:57:14;;;;;;;;;;;;;;;9.18;100.00;101854.81;5288581;28;20014;-71
2022/11/29 11:59:47;;;;;;;;;;;;;;;9.25;100.00;101852.66;5279918;28;19918;-74
2022/11/29 12:02:25;;;;;;;;;;;;;;;9.30;100.00;101860.22;5287643;28;19958;-71
2022/11/29 12:04:59;;;;;;;;;;;;;;;9.33;100.00;101863.47;5289792;28;20327;-71
2022/11/29 12:07:49;;;;;;;;;;;;;;;9.34;100.00;101870.38;5270111;28;19908;-71
2022/11/29 12:10:25;;;;;;;;;;;;;;;9.38;100.00;101868.41;5289307;28;19916;-72
2022/11/29 12:12:58;;;;;;;;;;;;;;;9.42;100.00;101875.13;5286354;28;20484;-71
2022/11/29 12:15:31;;;;;;;;;;;;;;;9.46;100.00;101874.81;5286801;28;19954;-71
2022/11/29 12:18:12;;;;;;;;;;;;;;;9.49;100.00;101876.41;5286130;28;19920;-71
2022/11/29 12:20:52;;;;;;;;;;;;;;;9.52;100.00;101871.00;5285233;28;19952;-72
2022/11/29 12:23:33;;;;;;;;;;;;;;;9.55;100.00;101878.66;5285146;28;19908;-74
2022/11/29 12:26:10;;;;;;;;;;;;;;;9.61;100.00;101880.03;5279155;28;19916;-72